createdAt,value
2023-05-03T00:00:04.555Z,15.00
2023-05-03T00:02:36.062Z,15.85
2023-05-03T00:05:06.107Z,13.48
2023-05-03T00:07:37.765Z,12.00
2023-05-03T00:10:07.117Z,16.23
2023-05-03T00:12:36.124Z,12.25
2023-05-03T00:15:05.390Z,15.40
2023-05-03T00:17:34.344Z,13.45
2023-05-03T00:20:05.086Z,11.40
2023-05-03T00:22:33.856Z,15.18
2023-05-03T00:25:04.927Z,12.27
2023-05-03T00:27:33.334Z,14.27
2023-05-03T00:30:03.591Z,10.57
2023-05-03T00:32:32.501Z,11.93
2023-05-03T00:35:01.114Z,10.77
2023-05-03T00:37:30.139Z,19.85
2023-05-03T00:39:59.144Z,12.85
2023-05-03T00:42:30.106Z,19.38
2023-05-03T00:44:58.579Z,14.60
2023-05-03T00:47:27.343Z,15.80
2023-05-03T00:49:55.771Z,16.60
2023-05-03T00:52:24.508Z,15.55
2023-05-03T00:54:53.738Z,17.70
2023-05-03T00:57:23.561Z,13.20
2023-05-03T00:59:54.849Z,13.60
2023-05-03T01:02:25.094Z,18.13
2023-05-03T01:04:55.169Z,12.75
2023-05-03T01:07:34.270Z,18.27
2023-05-03T01:10:18.361Z,13.38
2023-05-03T01:12:55.261Z,17.70
2023-05-03T01:15:41.594Z,17.20
2023-05-03T01:18:15.639Z,18.13
2023-05-03T01:20:48.244Z,15.93
2023-05-03T01:23:26.359Z,17.23
2023-05-03T01:25:58.935Z,18.55
2023-05-03T01:28:28.979Z,14.25
2023-05-03T01:30:59.527Z,16.67
2023-05-03T01:33:35.007Z,19.25
2023-05-03T01:36:14.338Z,16.77
2023-05-03T01:38:43.392Z,15.20
2023-05-03T01:41:15.285Z,14.25
2023-05-03T01:43:45.690Z,13.13
2023-05-03T01:46:16.062Z,17.75
2023-05-03T01:48:46.241Z,14.93
2023-05-03T01:51:14.519Z,15.38
2023-05-03T01:53:43.419Z,16.42
2023-05-03T01:56:13.508Z,10.63
2023-05-03T01:58:41.983Z,15.88
2023-05-03T02:01:11.678Z,15.73
2023-05-03T02:03:40.537Z,16.27
2023-05-03T02:06:09.875Z,15.50
2023-05-03T02:08:39.423Z,15.35
2023-05-03T02:11:08.345Z,15.65
2023-05-03T02:13:40.538Z,21.67
2023-05-03T02:16:09.902Z,21.70
2023-05-03T02:18:38.360Z,18.67
2023-05-03T02:21:07.156Z,20.67
2023-05-03T02:23:37.263Z,15.43
2023-05-03T02:26:07.067Z,11.82
2023-05-03T02:28:35.664Z,18.63
2023-05-03T02:31:08.661Z,15.60
2023-05-03T02:33:38.031Z,21.40
2023-05-03T02:36:07.044Z,18.20
2023-05-03T02:38:36.485Z,16.58
2023-05-03T02:41:04.937Z,16.63
2023-05-03T02:43:33.531Z,13.63
2023-05-03T02:46:02.224Z,19.42
2023-05-03T02:48:35.618Z,19.02
2023-05-03T02:51:04.547Z,22.80
2023-05-03T02:53:33.462Z,20.38
2023-05-03T02:56:06.842Z,24.40
2023-05-03T02:58:36.658Z,13.93
2023-05-03T03:01:07.207Z,18.40
2023-05-03T03:03:37.885Z,17.75
2023-05-03T03:06:06.963Z,19.38
2023-05-03T03:08:38.355Z,22.05
2023-05-03T03:11:08.221Z,18.90
2023-05-03T03:13:39.899Z,16.35
2023-05-03T03:16:11.177Z,18.85
2023-05-03T03:18:41.626Z,24.25
2023-05-03T03:21:10.350Z,18.55
2023-05-03T03:23:39.182Z,17.30
2023-05-03T03:26:07.693Z,18.02
2023-05-03T03:28:36.408Z,16.27
2023-05-03T03:31:10.469Z,17.33
2023-05-03T03:33:41.929Z,17.05
2023-05-03T03:36:16.757Z,22.30
2023-05-03T03:38:49.194Z,13.73
2023-05-03T03:41:17.564Z,15.63
2023-05-03T03:43:47.555Z,23.70
2023-05-03T03:46:20.110Z,22.00
2023-05-03T03:48:53.953Z,24.80
2023-05-03T03:51:25.532Z,22.25
2023-05-03T03:53:53.929Z,24.23
2023-05-03T03:56:25.738Z,14.50
2023-05-03T03:58:56.615Z,20.15
2023-05-03T04:01:26.936Z,16.10
2023-05-03T04:03:57.831Z,20.85
2023-05-03T04:06:29.082Z,17.13
2023-05-03T04:09:01.401Z,24.75
2023-05-03T04:11:32.299Z,21.10
2023-05-03T04:14:02.849Z,19.70
2023-05-03T04:16:32.950Z,21.13
2023-05-03T04:19:06.401Z,19.48
2023-05-03T04:21:37.910Z,19.90
2023-05-03T04:24:10.151Z,17.70
2023-05-03T04:26:38.592Z,18.95
2023-05-03T04:29:14.550Z,26.17
2023-05-03T04:31:45.186Z,16.13
2023-05-03T04:34:16.238Z,15.13
2023-05-03T04:36:49.361Z,17.50
2023-05-03T04:39:18.668Z,15.52
2023-05-03T04:41:49.270Z,20.75
2023-05-03T04:44:17.815Z,15.38
2023-05-03T04:46:49.442Z,13.60
2023-05-03T04:49:23.338Z,17.27
2023-05-03T04:51:53.308Z,19.50
2023-05-03T04:54:22.861Z,14.70
2023-05-03T04:56:52.739Z,13.82
2023-05-03T04:59:21.006Z,10.95
2023-05-03T05:01:53.219Z,11.65
2023-05-03T05:04:23.969Z,14.48
2023-05-03T05:06:54.226Z,18.58
2023-05-03T05:11:59.777Z,11.75
2023-05-03T05:14:36.744Z,10.98
2023-05-03T05:17:07.482Z,12.75
2023-05-03T05:19:38.852Z,15.90
2023-05-03T05:22:08.324Z,11.15
2023-05-03T05:24:52.407Z,15.35
2023-05-03T05:27:22.884Z,14.25
2023-05-03T05:29:54.605Z,12.95
2023-05-03T05:32:23.140Z,18.00
2023-05-03T05:34:55.374Z,15.55
2023-05-03T05:37:27.546Z,12.38
2023-05-03T05:40:00.793Z,14.52
2023-05-03T05:42:35.295Z,13.75
2023-05-03T05:45:05.460Z,12.88
2023-05-03T05:47:35.168Z,14.52
2023-05-03T05:50:17.031Z,10.55
2023-05-03T05:52:49.054Z,10.65
2023-05-03T05:55:19.746Z,11.50
2023-05-03T05:57:48.547Z,9.82
2023-05-03T06:00:21.637Z,13.77
2023-05-03T06:02:51.333Z,10.40
2023-05-03T06:05:25.111Z,11.63
2023-05-03T06:07:54.405Z,13.52
2023-05-03T06:10:23.120Z,8.45
2023-05-03T06:12:54.440Z,8.35
2023-05-03T06:15:26.908Z,15.00
2023-05-03T06:17:55.965Z,7.95
2023-05-03T06:20:26.738Z,10.38
2023-05-03T06:22:57.190Z,7.15
2023-05-03T06:25:26.684Z,11.75
2023-05-03T06:27:55.842Z,6.70
2023-05-03T06:30:28.653Z,11.60
2023-05-03T06:33:02.760Z,10.55
2023-05-03T06:35:33.807Z,6.55
2023-05-03T06:38:02.274Z,8.52
2023-05-03T06:40:30.735Z,9.00
2023-05-03T06:43:00.362Z,7.05
2023-05-03T06:45:46.436Z,8.27
2023-05-03T06:48:15.479Z,8.68
2023-05-03T06:50:45.352Z,9.23
2023-05-03T06:53:18.226Z,8.60
2023-05-03T06:55:47.220Z,8.73
2023-05-03T06:58:16.996Z,8.98
2023-05-03T07:00:45.674Z,9.13
2023-05-03T07:03:14.731Z,8.10
2023-05-03T07:05:46.245Z,6.03
2023-05-03T07:08:16.426Z,10.60
2023-05-03T07:10:47.274Z,8.57
2023-05-03T07:13:17.454Z,12.38
2023-05-03T07:15:46.623Z,10.50
2023-05-03T07:18:15.750Z,7.95
2023-05-03T07:20:46.533Z,9.55
2023-05-03T07:23:16.025Z,9.13
2023-05-03T07:25:46.264Z,9.27
2023-05-03T07:28:14.701Z,12.75
2023-05-03T07:30:43.905Z,11.70
2023-05-03T07:33:12.401Z,7.07
2023-05-03T07:35:40.957Z,10.77
2023-05-03T07:38:11.422Z,7.90
2023-05-03T07:40:41.731Z,8.20
2023-05-03T07:43:12.234Z,8.60
2023-05-03T07:45:40.877Z,6.13
2023-05-03T07:48:11.165Z,8.45
2023-05-03T07:50:42.765Z,7.35
2023-05-03T07:53:31.327Z,8.85
2023-05-03T07:55:59.545Z,15.70
2023-05-03T07:58:38.940Z,7.28
2023-05-03T08:01:08.991Z,10.57
2023-05-03T08:03:37.639Z,7.82
2023-05-03T08:06:07.253Z,6.90
2023-05-03T08:08:38.429Z,7.30
2023-05-03T08:11:06.581Z,10.05
2023-05-03T08:13:35.014Z,6.50
2023-05-03T08:16:03.332Z,10.00
2023-05-03T08:18:33.059Z,6.68
2023-05-03T08:21:01.435Z,6.32
2023-05-03T08:23:29.672Z,5.88
2023-05-03T08:26:06.752Z,8.25
2023-05-03T08:28:35.537Z,7.47
2023-05-03T08:31:05.467Z,6.45
2023-05-03T08:33:34.086Z,5.68
2023-05-03T08:36:03.087Z,6.63
2023-05-03T08:38:33.466Z,7.95
2023-05-03T08:41:12.029Z,12.52
2023-05-03T08:43:45.781Z,7.53
2023-05-03T08:46:15.018Z,7.22
2023-05-03T08:48:46.505Z,7.72
2023-05-03T08:51:16.004Z,7.40
2023-05-03T08:53:44.607Z,8.20
2023-05-03T08:56:25.115Z,7.88
2023-05-03T08:58:53.730Z,7.28
2023-05-03T09:01:24.069Z,6.60
2023-05-03T09:03:53.157Z,6.93
2023-05-03T09:06:26.009Z,11.98
2023-05-03T09:08:55.169Z,10.20
2023-05-03T09:11:29.340Z,4.18
2023-05-03T09:14:10.375Z,6.15
2023-05-03T09:16:41.075Z,7.32
2023-05-03T09:19:12.655Z,6.80
2023-05-03T09:21:43.524Z,5.82
2023-05-03T09:24:18.366Z,7.75
2023-05-03T09:26:50.865Z,5.57
2023-05-03T09:29:30.798Z,6.93
2023-05-03T09:32:05.557Z,6.03
2023-05-03T09:34:35.472Z,7.03
2023-05-03T09:37:05.639Z,5.20
2023-05-03T09:39:34.826Z,5.65
2023-05-03T09:42:13.127Z,9.80
2023-05-03T09:44:48.984Z,6.95
2023-05-03T09:47:18.758Z,7.75
2023-05-03T09:49:47.547Z,7.30
2023-05-03T09:52:17.375Z,9.27
2023-05-03T09:54:47.376Z,7.68
2023-05-03T09:57:18.026Z,7.07
2023-05-03T09:59:48.667Z,5.43
2023-05-03T10:02:18.161Z,10.27
2023-05-03T10:04:52.389Z,5.85
2023-05-03T10:09:52.388Z,6.00
2023-05-03T10:12:25.943Z,6.57
2023-05-03T10:14:56.658Z,6.43
2023-05-03T10:17:46.158Z,8.05
2023-05-03T10:20:24.381Z,6.03
2023-05-03T10:23:13.604Z,5.63
2023-05-03T10:26:15.028Z,5.95
2023-05-03T10:28:46.894Z,4.60
2023-05-03T10:31:47.311Z,4.88
2023-05-03T10:34:23.767Z,4.88
2023-05-03T10:36:54.164Z,4.07
2023-05-03T10:39:23.159Z,4.55
2023-05-03T10:42:01.549Z,4.63
2023-05-03T10:44:40.959Z,7.07
2023-05-03T10:47:16.243Z,6.95
2023-05-03T10:49:45.177Z,6.47
2023-05-03T10:52:57.024Z,3.28
2023-05-03T10:55:28.862Z,4.20
2023-05-03T10:57:59.271Z,3.80
2023-05-03T11:00:39.149Z,4.85
2023-05-03T11:03:55.344Z,4.40
2023-05-03T11:06:34.406Z,4.68
2023-05-03T11:09:06.091Z,5.15
2023-05-03T11:11:39.517Z,5.05
2023-05-03T11:14:08.839Z,7.55
2023-05-03T11:16:47.829Z,4.22
2023-05-03T11:19:18.843Z,5.30
2023-05-03T11:21:49.088Z,6.43
2023-05-03T11:24:17.899Z,6.70
2023-05-03T11:26:46.591Z,7.40
2023-05-03T11:29:17.790Z,6.10
2023-05-03T11:31:48.089Z,5.68
2023-05-03T11:34:17.318Z,4.57
2023-05-03T11:36:47.252Z,6.28
2023-05-03T11:39:19.653Z,3.33
2023-05-03T11:42:04.777Z,3.97
2023-05-03T11:47:03.854Z,5.47
2023-05-03T11:49:32.843Z,5.28
2023-05-03T11:52:02.064Z,4.15
2023-05-03T11:54:33.179Z,7.53
2023-05-03T11:57:13.643Z,7.07
2023-05-03T11:59:42.861Z,6.40
2023-05-03T12:02:15.276Z,5.32
2023-05-03T12:04:47.128Z,4.32
2023-05-03T12:07:19.684Z,3.97
2023-05-03T12:10:00.767Z,6.30
2023-05-03T12:12:44.069Z,13.48
2023-05-03T12:15:18.603Z,4.18
2023-05-03T12:17:50.892Z,7.35
2023-05-03T12:22:58.102Z,4.65
2023-05-03T12:25:33.083Z,5.10
2023-05-03T12:30:40.132Z,5.10
2023-05-03T12:33:21.731Z,5.30
2023-05-03T12:35:54.407Z,4.72
2023-05-03T12:38:25.217Z,4.68
2023-05-03T12:40:55.066Z,4.47
2023-05-03T12:43:24.132Z,2.90
2023-05-03T12:46:08.505Z,4.93
2023-05-03T12:48:46.213Z,3.15
2023-05-03T12:53:55.271Z,5.22
2023-05-03T12:56:25.876Z,3.80
2023-05-03T13:06:41.693Z,4.53
2023-05-03T13:09:20.072Z,4.53
2023-05-03T13:11:52.344Z,7.63
2023-05-03T13:14:21.603Z,2.78
2023-05-03T13:16:52.085Z,6.28
2023-05-03T13:19:25.072Z,5.03
2023-05-03T13:21:54.733Z,4.68
2023-05-03T13:24:25.340Z,4.45
2023-05-03T13:26:54.763Z,4.03
2023-05-03T13:29:24.349Z,2.85
2023-05-03T13:31:53.384Z,5.13
2023-05-03T13:34:24.445Z,4.32
2023-05-03T13:36:52.910Z,6.13
2023-05-03T13:42:48.861Z,3.17
2023-05-03T13:45:18.253Z,5.20
2023-05-03T13:48:14.101Z,4.70
2023-05-03T13:50:40.506Z,2.65
2023-05-03T13:53:09.494Z,7.10
2023-05-03T13:55:39.209Z,3.05
2023-05-03T13:58:09.561Z,6.50
2023-05-03T14:00:39.489Z,6.15
2023-05-03T14:03:08.144Z,4.82
2023-05-03T14:05:39.058Z,4.13
2023-05-03T14:08:11.405Z,2.53
2023-05-03T14:10:40.941Z,6.60
2023-05-03T14:13:09.785Z,2.50
2023-05-03T14:15:41.273Z,3.88
2023-05-03T14:18:11.147Z,5.25
2023-05-03T14:20:43.113Z,3.45
2023-05-03T14:23:16.330Z,7.10
2023-05-03T14:25:45.351Z,4.60
2023-05-03T14:28:14.575Z,4.32
2023-05-03T14:30:43.937Z,3.08
2023-05-03T14:33:14.177Z,4.97
2023-05-03T14:35:44.061Z,3.35
2023-05-03T14:38:12.654Z,2.72
2023-05-03T14:40:42.925Z,5.97
2023-05-03T14:43:11.439Z,3.35
2023-05-03T14:45:40.154Z,3.40
2023-05-03T14:48:10.216Z,2.65
2023-05-03T14:50:47.472Z,5.53
2023-05-03T14:53:18.155Z,4.18
2023-05-03T14:55:47.304Z,3.53
2023-05-03T14:58:16.504Z,4.95
2023-05-03T15:00:45.575Z,7.18
2023-05-03T15:03:14.538Z,6.75
2023-05-03T15:05:46.226Z,5.13
2023-05-03T15:08:18.107Z,9.70
2023-05-03T15:10:48.204Z,4.38
2023-05-03T15:13:17.568Z,4.25
2023-05-03T15:15:46.452Z,4.50
2023-05-03T15:18:15.664Z,2.63
2023-05-03T15:20:44.113Z,9.70
2023-05-03T15:23:14.232Z,5.80
2023-05-03T15:25:44.151Z,7.57
2023-05-03T15:28:14.824Z,5.57
2023-05-03T15:30:45.766Z,6.50
2023-05-03T15:33:17.568Z,7.57
2023-05-03T15:35:46.596Z,5.13
2023-05-03T15:38:22.590Z,4.75
2023-05-03T15:40:53.009Z,2.85
2023-05-03T15:43:23.315Z,8.48
2023-05-03T15:45:51.881Z,3.97
2023-05-03T15:48:20.676Z,6.40
2023-05-03T15:50:51.769Z,4.10
2023-05-03T15:53:20.937Z,4.80
2023-05-03T15:55:49.790Z,5.70
2023-05-03T15:58:23.530Z,3.42
2023-05-03T16:00:52.442Z,5.72
2023-05-03T16:03:22.526Z,5.05
2023-05-03T16:05:54.746Z,2.90
2023-05-03T16:08:26.510Z,2.63
2023-05-03T16:10:56.483Z,3.95
2023-05-03T16:13:27.629Z,5.72
2023-05-03T16:15:57.210Z,3.80
2023-05-03T16:18:27.280Z,3.88
2023-05-03T16:20:56.417Z,4.22
2023-05-03T16:23:25.132Z,3.80
2023-05-03T16:25:56.123Z,3.50
2023-05-03T16:28:28.536Z,3.70
2023-05-03T16:30:59.447Z,3.70
2023-05-03T16:33:28.508Z,4.57
2023-05-03T16:35:59.053Z,3.38
2023-05-03T16:38:30.921Z,5.53
2023-05-03T16:41:02.179Z,2.70
2023-05-03T16:43:34.228Z,3.30
2023-05-03T16:46:04.148Z,4.63
2023-05-03T16:48:38.191Z,6.22
2023-05-03T16:53:50.574Z,2.47
2023-05-03T16:56:21.985Z,2.05
2023-05-03T16:58:54.035Z,3.58
2023-05-03T17:01:33.442Z,7.88
2023-05-03T17:04:03.268Z,2.40
2023-05-03T17:06:33.511Z,3.88
2023-05-03T17:09:04.695Z,5.78
2023-05-03T17:11:33.708Z,2.92
2023-05-03T17:14:04.497Z,4.38
2023-05-03T17:16:37.904Z,5.40
2023-05-03T17:19:06.493Z,5.47
2023-05-03T17:21:35.252Z,4.70
2023-05-03T17:24:08.611Z,4.97
2023-05-03T17:26:37.360Z,6.85
2023-05-03T17:29:08.653Z,2.70
2023-05-03T17:31:37.341Z,4.28
2023-05-03T17:34:07.489Z,7.00
2023-05-03T17:36:36.012Z,4.15
2023-05-03T17:39:05.252Z,2.03
2023-05-03T17:41:33.549Z,2.72
2023-05-03T17:44:03.477Z,4.80
2023-05-03T17:46:42.619Z,5.68
2023-05-03T17:49:11.841Z,3.08
2023-05-03T17:51:42.064Z,3.88
2023-05-03T17:54:12.425Z,7.40
2023-05-03T17:56:42.788Z,4.72
2023-05-03T17:59:11.526Z,6.60
2023-05-03T18:01:42.105Z,7.50
2023-05-03T18:04:11.552Z,4.07
2023-05-03T18:07:08.227Z,2.45
2023-05-03T18:09:40.781Z,6.93
2023-05-03T18:12:23.181Z,5.72
2023-05-03T18:15:05.944Z,4.15
2023-05-03T18:17:36.451Z,5.22
2023-05-03T18:20:09.708Z,5.60
2023-05-03T18:22:40.057Z,6.07
2023-05-03T18:25:10.613Z,8.05
2023-05-03T18:27:40.848Z,2.65
2023-05-03T18:30:11.896Z,2.35
2023-05-03T18:32:43.370Z,2.83
2023-05-03T18:35:12.030Z,2.83
2023-05-03T18:37:42.088Z,3.17
2023-05-03T18:40:12.962Z,2.30
2023-05-03T18:42:42.678Z,11.25
2023-05-03T18:45:12.085Z,3.78
2023-05-03T18:47:44.559Z,3.20
2023-05-03T18:50:14.628Z,3.05
2023-05-03T18:52:42.947Z,5.07
2023-05-03T18:55:12.418Z,7.35
2023-05-03T18:57:41.531Z,3.85
2023-05-03T19:00:11.600Z,5.63
2023-05-03T19:02:41.114Z,3.33
2023-05-03T19:05:14.257Z,5.28
2023-05-03T19:07:51.172Z,2.72
2023-05-03T19:10:24.560Z,6.10
2023-05-03T19:12:55.159Z,3.70
2023-05-03T19:15:26.291Z,3.63
2023-05-03T19:17:55.584Z,4.50
2023-05-03T19:20:27.934Z,4.82
2023-05-03T19:22:58.737Z,4.32
2023-05-03T19:25:33.464Z,3.47
2023-05-03T19:28:04.787Z,4.22
2023-05-03T19:30:36.177Z,11.27
2023-05-03T19:33:07.331Z,8.23
2023-05-03T19:35:42.446Z,10.60
2023-05-03T19:38:14.657Z,5.10
2023-05-03T19:40:44.155Z,4.90
2023-05-03T19:43:12.824Z,4.68
2023-05-03T19:45:45.117Z,7.13
2023-05-03T19:48:16.670Z,4.63
2023-05-03T19:50:48.243Z,4.35
2023-05-03T19:53:21.713Z,5.28
2023-05-03T19:55:58.774Z,5.70
2023-05-03T19:58:29.015Z,5.60
2023-05-03T20:01:01.158Z,5.35
2023-05-03T20:03:34.575Z,6.22
2023-05-03T20:06:05.940Z,5.07
2023-05-03T20:08:36.390Z,5.90
2023-05-03T20:11:05.927Z,5.38
2023-05-03T20:13:38.228Z,3.78
2023-05-03T20:16:12.411Z,6.63
2023-05-03T20:18:53.883Z,9.15
2023-05-03T20:21:23.838Z,5.35
2023-05-03T20:23:52.427Z,4.47
2023-05-03T20:26:28.860Z,3.90
2023-05-03T20:28:58.737Z,3.03
2023-05-03T20:31:31.704Z,8.43
2023-05-03T20:34:02.802Z,5.85
2023-05-03T20:36:38.344Z,9.23
2023-05-03T20:39:08.409Z,8.32
2023-05-03T20:41:43.667Z,5.85
2023-05-03T20:44:14.372Z,3.15
2023-05-03T20:46:43.385Z,6.95
2023-05-03T20:49:12.398Z,5.15
2023-05-03T20:51:49.490Z,4.20
2023-05-03T20:54:18.550Z,6.30
2023-05-03T20:57:09.817Z,6.25
2023-05-03T20:59:39.139Z,6.53
2023-05-03T21:02:10.827Z,8.23
2023-05-03T21:04:39.539Z,5.07
2023-05-03T21:07:14.438Z,4.43
2023-05-03T21:09:42.803Z,3.20
2023-05-03T21:12:11.903Z,5.55
2023-05-03T21:14:41.712Z,5.10
2023-05-03T21:17:12.606Z,8.93
2023-05-03T21:19:41.658Z,3.97
2023-05-03T21:22:15.344Z,5.57
2023-05-03T21:24:44.391Z,4.93
2023-05-03T21:27:12.512Z,5.30
2023-05-03T21:29:47.763Z,4.53
2023-05-03T21:34:50.199Z,5.70
2023-05-03T21:37:24.700Z,9.98
2023-05-03T21:40:01.377Z,6.75
2023-05-03T21:42:31.405Z,10.13
2023-05-03T21:45:01.648Z,9.38
2023-05-03T21:47:31.822Z,4.10
2023-05-03T21:53:03.754Z,8.07
2023-05-03T21:55:35.375Z,6.88
2023-05-03T21:58:03.796Z,4.13
2023-05-03T22:00:34.774Z,5.07
2023-05-03T22:03:05.338Z,3.55
2023-05-03T22:05:44.691Z,5.13
2023-05-03T22:08:21.071Z,4.95
2023-05-03T22:10:51.917Z,5.90
2023-05-03T22:13:32.655Z,5.25
2023-05-03T22:16:09.889Z,5.72
2023-05-03T22:18:39.476Z,9.88
2023-05-03T22:21:17.938Z,5.78
2023-05-03T22:23:56.498Z,6.25
2023-05-03T22:29:51.848Z,6.32
2023-05-03T22:32:26.140Z,2.90
2023-05-03T22:37:30.262Z,8.50
2023-05-03T22:40:15.516Z,7.63
2023-05-03T22:48:11.891Z,4.03
2023-05-03T22:50:43.540Z,10.73
2023-05-03T22:53:18.305Z,5.38
2023-05-03T22:55:56.058Z,6.10
2023-05-03T23:04:16.762Z,6.03
2023-05-03T23:06:49.224Z,4.43
2023-05-03T23:09:24.021Z,11.05
2023-05-03T23:12:04.031Z,8.00
2023-05-03T23:14:37.823Z,4.40
2023-05-03T23:17:09.344Z,6.78
2023-05-03T23:20:19.281Z,9.23
2023-05-03T23:22:47.423Z,6.53
2023-05-03T23:25:20.556Z,9.70
2023-05-03T23:28:14.636Z,7.82
2023-05-03T23:30:48.400Z,5.63
2023-05-03T23:33:20.699Z,7.38
2023-05-03T23:35:53.879Z,5.25
2023-05-03T23:38:23.905Z,6.15
2023-05-03T23:40:58.569Z,4.55
2023-05-03T23:44:18.470Z,5.28
2023-05-03T23:46:51.280Z,6.57
2023-05-03T23:49:35.549Z,5.28
2023-05-03T23:52:11.422Z,4.82
2023-05-03T23:54:39.679Z,8.57
2023-05-03T23:57:11.339Z,6.20
2023-05-03T23:59:42.530Z,4.15
